Time;durP1;ratioP1;P1;durP2;ratioP2;P2;SDS_P1;SDS_P2;PMS_P1;PMS_P2;Temp;Humidity;BMP_temperature;BMP_pressure;BME280_temperature;BME280_humidity;BME280_pressure;Samples;Min_cycle;Max_cycle;Signal;HPM_P1;HPM_P2
2023/10/10 00:01:05;;;;;;;;;;;17.00;99.90;;;;;;5030925;28;20375;-71
2023/10/10 00:03:37;;;;;;;;;;;17.00;99.90;;;;;;5030599;28;19965;-69
2023/10/10 00:06:08;;;;;;;;;;;17.00;99.90;;;;;;5031117;28;20063;-70
2023/10/10 00:08:40;;;;;;;;;;;17.00;99.90;;;;;;5027639;28;19990;-70
2023/10/10 00:11:14;;;;;;;;;;;16.90;99.90;;;;;;5029535;28;19971;-72
2023/10/10 00:13:43;;;;;;;;;;;16.90;99.90;;;;;;5029971;28;19963;-70
2023/10/10 00:16:11;;;;;;;;;;;17.00;99.90;;;;;;5030902;28;20417;-72
2023/10/10 00:18:43;;;;;;;;;;;17.10;99.90;;;;;;5030439;28;20451;-71
2023/10/10 00:21:13;;;;;;;;;;;17.10;99.90;;;;;;5030770;28;19925;-70
2023/10/10 00:23:42;;;;;;;;;;;17.00;99.90;;;;;;5029802;28;19971;-70
2023/10/10 00:26:15;;;;;;;;;;;17.10;99.90;;;;;;5030734;28;19965;-69
2023/10/10 00:28:45;;;;;;;;;;;17.20;99.90;;;;;;5030478;28;19975;-70
2023/10/10 00:31:17;;;;;;;;;;;17.10;99.90;;;;;;5031794;28;19955;-70
2023/10/10 00:33:47;;;;;;;;;;;17.00;99.90;;;;;;5033941;28;19973;-69
2023/10/10 00:36:21;;;;;;;;;;;17.00;99.90;;;;;;5034445;28;19971;-69
2023/10/10 00:38:49;;;;;;;;;;;17.10;99.90;;;;;;5028774;28;20006;-69
2023/10/10 00:41:18;;;;;;;;;;;17.10;99.90;;;;;;5033944;28;20384;-70
2023/10/10 00:43:46;;;;;;;;;;;17.00;99.90;;;;;;5033647;28;20014;-71
2023/10/10 00:46:14;;;;;;;;;;;16.80;99.90;;;;;;5034083;28;20013;-69
2023/10/10 00:48:44;;;;;;;;;;;16.80;99.90;;;;;;5033595;28;20351;-69
2023/10/10 00:51:20;;;;;;;;;;;16.80;99.90;;;;;;5033784;28;20016;-69
2023/10/10 00:54:08;;;;;;;;;;;16.80;99.90;;;;;;5032693;28;20059;-69
2023/10/10 00:56:39;;;;;;;;;;;16.80;99.90;;;;;;5033748;28;20410;-69
2023/10/10 00:59:07;;;;;;;;;;;16.80;99.90;;;;;;5034177;28;20011;-70
2023/10/10 01:01:35;;;;;;;;;;;16.80;99.90;;;;;;5033791;28;20056;-70
2023/10/10 01:04:05;;;;;;;;;;;16.70;99.90;;;;;;5033597;28;20069;-70
2023/10/10 01:06:38;;;;;;;;;;;16.80;99.90;;;;;;5033627;28;19929;-70
2023/10/10 01:09:20;;;;;;;;;;;16.80;99.90;;;;;;5046522;28;19925;-72
2023/10/10 01:11:49;;;;;;;;;;;16.70;99.90;;;;;;5034981;28;20391;-71
2023/10/10 01:14:18;;;;;;;;;;;16.70;99.90;;;;;;5048596;28;20378;-70
2023/10/10 01:16:47;;;;;;;;;;;16.70;99.90;;;;;;5042245;28;19932;-71
2023/10/10 01:19:18;;;;;;;;;;;16.60;99.90;;;;;;5033744;28;19932;-71
2023/10/10 01:21:57;;;;;;;;;;;16.50;99.90;;;;;;5033214;28;19925;-71
2023/10/10 01:24:25;;;;;;;;;;;16.50;99.90;;;;;;5037230;28;19925;-72
2023/10/10 01:26:54;;;;;;;;;;;16.50;99.90;;;;;;5033262;28;19925;-71
2023/10/10 01:29:25;;;;;;;;;;;16.50;99.90;;;;;;5033497;28;19925;-72
2023/10/10 01:31:53;;;;;;;;;;;16.40;99.90;;;;;;5041393;28;19933;-74
2023/10/10 01:34:31;;;;;;;;;;;16.40;99.90;;;;;;5031648;28;20466;-72
2023/10/10 01:37:07;;;;;;;;;;;16.40;99.90;;;;;;5041779;28;19929;-71
2023/10/10 01:39:47;;;;;;;;;;;16.30;99.90;;;;;;5034579;28;19968;-71
2023/10/10 01:42:18;;;;;;;;;;;16.30;99.90;;;;;;5045771;28;19925;-71
2023/10/10 01:44:47;;;;;;;;;;;16.30;99.90;;;;;;5042091;28;19925;-71
2023/10/10 01:47:26;;;;;;;;;;;16.30;99.90;;;;;;5033026;28;20358;-71
2023/10/10 01:49:58;;;;;;;;;;;16.30;99.90;;;;;;5032985;28;19957;-70
2023/10/10 01:52:27;;;;;;;;;;;16.30;99.90;;;;;;5033416;28;20061;-69
2023/10/10 01:54:55;;;;;;;;;;;16.30;99.90;;;;;;5041260;28;19933;-71
2023/10/10 01:57:24;;;;;;;;;;;16.30;99.90;;;;;;5033407;28;20280;-71
2023/10/10 01:59:52;;;;;;;;;;;16.20;99.90;;;;;;5033232;28;19989;-70
2023/10/10 02:02:23;;;;;;;;;;;16.20;99.90;;;;;;5033277;28;19991;-70
2023/10/10 02:04:55;;;;;;;;;;;16.20;99.90;;;;;;5032471;28;19939;-70
2023/10/10 02:07:31;;;;;;;;;;;16.20;99.90;;;;;;5033066;28;19925;-70
2023/10/10 02:10:12;;;;;;;;;;;16.10;99.90;;;;;;5033095;28;19987;-71
2023/10/10 02:12:44;;;;;;;;;;;16.20;99.90;;;;;;5037141;28;20405;-71
2023/10/10 02:15:14;;;;;;;;;;;16.20;99.90;;;;;;5052215;28;20027;-71
2023/10/10 02:17:50;;;;;;;;;;;16.20;99.90;;;;;;5042475;28;19971;-70
2023/10/10 02:20:49;;;;;;;;;;;16.10;99.90;;;;;;5032353;28;19963;-68
2023/10/10 02:23:23;;;;;;;;;;;16.10;99.90;;;;;;5032030;28;19967;-70
2023/10/10 02:25:54;;;;;;;;;;;16.10;99.90;;;;;;5032032;28;19967;-71
2023/10/10 02:28:42;;;;;;;;;;;16.10;99.90;;;;;;5032318;28;19931;-70
2023/10/10 02:31:13;;;;;;;;;;;16.20;99.90;;;;;;5032098;28;20384;-71
2023/10/10 02:33:48;;;;;;;;;;;16.10;99.90;;;;;;5039960;28;20076;-69
2023/10/10 02:36:29;;;;;;;;;;;16.10;99.90;;;;;;5032204;28;20009;-70
2023/10/10 02:38:59;;;;;;;;;;;16.10;99.90;;;;;;5039843;28;19962;-70
2023/10/10 02:41:38;;;;;;;;;;;16.00;99.90;;;;;;5042869;28;20021;-69
2023/10/10 02:44:09;;;;;;;;;;;16.10;99.90;;;;;;5044345;28;19974;-71
2023/10/10 02:46:39;;;;;;;;;;;16.10;99.90;;;;;;5036158;28;19963;-71
2023/10/10 02:49:12;;;;;;;;;;;16.10;99.90;;;;;;5031876;28;20371;-71
2023/10/10 02:51:48;;;;;;;;;;;16.10;99.90;;;;;;5038323;28;20023;-71
2023/10/10 02:54:28;;;;;;;;;;;16.10;99.90;;;;;;5031027;28;20480;-71
2023/10/10 02:56:58;;;;;;;;;;;16.10;99.90;;;;;;5031416;28;20017;-71
2023/10/10 02:59:31;;;;;;;;;;;16.10;99.90;;;;;;5031798;28;19963;-70
2023/10/10 03:02:08;;;;;;;;;;;16.10;99.90;;;;;;5031378;28;19959;-72
2023/10/10 03:04:58;;;;;;;;;;;16.20;99.90;;;;;;5031347;28;20009;-72
2023/10/10 03:07:28;;;;;;;;;;;16.20;99.90;;;;;;5030682;28;19963;-71
2023/10/10 03:12:49;;;;;;;;;;;16.30;99.90;;;;;;5030982;28;19986;-71
2023/10/10 03:15:29;;;;;;;;;;;16.20;99.90;;;;;;5031239;28;20367;-72
2023/10/10 03:18:19;;;;;;;;;;;16.10;99.90;;;;;;5031192;28;19966;-71
2023/10/10 03:21:05;;;;;;;;;;;16.10;99.90;;;;;;5031613;28;20062;-71
2023/10/10 03:23:41;;;;;;;;;;;16.10;99.90;;;;;;5030619;28;19963;-70
2023/10/10 03:26:18;;;;;;;;;;;16.20;99.90;;;;;;5030840;28;19963;-70
2023/10/10 03:29:03;;;;;;;;;;;16.10;99.90;;;;;;5029212;28;20078;-70
2023/10/10 03:31:38;;;;;;;;;;;16.20;99.90;;;;;;5031344;28;19971;-70
2023/10/10 03:34:18;;;;;;;;;;;16.10;99.90;;;;;;5023263;28;20002;-71
2023/10/10 03:37:03;;;;;;;;;;;16.20;99.90;;;;;;5024536;28;20022;-72
2023/10/10 03:39:49;;;;;;;;;;;16.10;99.90;;;;;;5031164;28;20307;-72
2023/10/10 05:24:43;;;;;;;;;;;15.50;99.90;;;;;;5041961;28;20869;-70
2023/10/10 05:27:11;;;;;;;;;;;15.50;99.90;;;;;;5041385;28;19932;-69
2023/10/10 05:29:41;;;;;;;;;;;15.50;99.90;;;;;;5041960;28;20357;-70
2023/10/10 05:32:09;;;;;;;;;;;15.60;99.90;;;;;;5041860;28;21438;-70
2023/10/10 05:34:37;;;;;;;;;;;15.80;99.90;;;;;;5041589;28;20529;-71
2023/10/10 05:37:06;;;;;;;;;;;15.70;99.90;;;;;;5041838;28;19978;-71
2023/10/10 05:39:37;;;;;;;;;;;15.70;99.90;;;;;;5041484;28;20334;-69
2023/10/10 05:42:08;;;;;;;;;;;15.80;99.90;;;;;;5041386;28;20028;-70
2023/10/10 05:44:38;;;;;;;;;;;15.80;99.90;;;;;;5040596;28;20556;-69
2023/10/10 05:47:07;;;;;;;;;;;15.70;99.90;;;;;;5041656;28;19939;-70
2023/10/10 05:49:36;;;;;;;;;;;15.70;99.90;;;;;;5041203;28;20503;-68
2023/10/10 05:52:04;;;;;;;;;;;15.60;99.90;;;;;;5041418;28;20017;-70
2023/10/10 05:54:32;;;;;;;;;;;15.60;99.90;;;;;;5041469;28;19957;-70
2023/10/10 05:57:00;;;;;;;;;;;15.50;99.90;;;;;;5041770;28;19970;-71
2023/10/10 05:59:29;;;;;;;;;;;15.40;99.90;;;;;;5041822;28;19928;-70
2023/10/10 06:01:57;;;;;;;;;;;15.50;99.90;;;;;;5041416;28;19933;-68
2023/10/10 06:04:25;;;;;;;;;;;15.60;99.90;;;;;;5042268;28;19986;-68
2023/10/10 06:06:53;;;;;;;;;;;15.70;99.90;;;;;;5040867;28;19937;-68
2023/10/10 06:09:26;;;;;;;;;;;15.60;99.90;;;;;;5040997;28;19941;-69
2023/10/10 06:11:54;;;;;;;;;;;15.60;99.90;;;;;;5041465;28;19939;-68
2023/10/10 06:14:22;;;;;;;;;;;15.60;99.90;;;;;;5041407;28;19967;-69
2023/10/10 06:16:52;;;;;;;;;;;15.80;99.90;;;;;;5041307;28;20458;-69
2023/10/10 06:19:20;;;;;;;;;;;15.80;99.90;;;;;;5040982;28;19978;-70
2023/10/10 06:21:49;;;;;;;;;;;15.80;99.90;;;;;;5041298;28;20072;-69
2023/10/10 06:24:18;;;;;;;;;;;15.90;99.90;;;;;;5041262;28;19971;-68
2023/10/10 06:26:47;;;;;;;;;;;15.90;99.90;;;;;;5041281;28;19983;-67
2023/10/10 06:29:15;;;;;;;;;;;16.00;99.90;;;;;;5040199;28;20643;-68
2023/10/10 06:31:45;;;;;;;;;;;16.20;99.90;;;;;;5040807;28;19974;-70
2023/10/10 06:34:22;;;;;;;;;;;16.10;99.90;;;;;;5039235;28;19971;-68
2023/10/10 06:36:51;;;;;;;;;;;16.30;99.90;;;;;;5040956;28;19975;-70
2023/10/10 06:39:19;;;;;;;;;;;16.40;99.90;;;;;;5039334;28;20331;-72
2023/10/10 06:41:49;;;;;;;;;;;16.30;99.90;;;;;;5040890;28;20048;-71
2023/10/10 06:44:31;;;;;;;;;;;16.10;99.90;;;;;;5040849;28;19971;-70
2023/10/10 06:47:00;;;;;;;;;;;15.90;99.90;;;;;;5040519;28;20353;-71
2023/10/10 06:49:43;;;;;;;;;;;15.50;99.90;;;;;;5039477;28;19967;-72
2023/10/10 06:52:17;;;;;;;;;;;15.30;99.90;;;;;;5040186;28;19974;-72
2023/10/10 06:54:53;;;;;;;;;;;15.30;99.90;;;;;;5040272;28;20062;-71
2023/10/10 06:57:35;;;;;;;;;;;15.20;99.90;;;;;;5038446;28;20618;-69
2023/10/10 07:02:53;;;;;;;;;;;15.40;99.90;;;;;;5040370;28;19974;-71
2023/10/10 07:05:26;;;;;;;;;;;15.60;99.90;;;;;;5039662;28;20336;-71
2023/10/10 07:07:58;;;;;;;;;;;15.90;99.90;;;;;;5038265;28;19973;-71
2023/10/10 07:10:27;;;;;;;;;;;16.00;99.90;;;;;;5034456;28;19978;-72
2023/10/10 07:12:57;;;;;;;;;;;16.20;99.90;;;;;;5037642;28;20353;-72
2023/10/10 07:15:26;;;;;;;;;;;16.40;99.90;;;;;;5039934;28;19970;-74
2023/10/10 07:18:04;;;;;;;;;;;16.50;99.90;;;;;;5035980;28;19972;-72
2023/10/10 07:23:20;;;;;;;;;;;16.60;99.90;;;;;;5034899;28;19971;-72
2023/10/10 07:25:59;;;;;;;;;;;16.80;99.90;;;;;;5037627;28;19975;-73
2023/10/10 07:28:28;;;;;;;;;;;16.90;99.90;;;;;;5039423;28;19975;-75
2023/10/10 07:30:56;;;;;;;;;;;16.90;99.90;;;;;;5037737;28;20668;-75
2023/10/10 07:33:26;;;;;;;;;;;17.10;99.90;;;;;;5039326;28;19974;-73
2023/10/10 07:35:56;;;;;;;;;;;17.20;99.90;;;;;;5039753;28;19974;-72
2023/10/10 07:38:27;;;;;;;;;;;17.10;99.90;;;;;;5039955;28;20135;-72
2023/10/10 07:40:55;;;;;;;;;;;17.20;99.90;;;;;;5040409;28;19971;-75
2023/10/10 07:43:26;;;;;;;;;;;17.20;99.90;;;;;;5044669;28;19979;-72
2023/10/10 07:45:55;;;;;;;;;;;17.00;99.90;;;;;;5044429;28;20529;-75
2023/10/10 07:48:44;;;;;;;;;;;17.10;99.90;;;;;;5044078;28;20563;-73
2023/10/10 07:51:27;;;;;;;;;;;17.30;99.90;;;;;;5043241;28;19986;-72
2023/10/10 07:54:02;;;;;;;;;;;17.30;99.90;;;;;;5042700;28;20176;-73
2023/10/10 07:56:31;;;;;;;;;;;17.50;99.90;;;;;;5043830;28;20477;-75
2023/10/10 07:58:59;;;;;;;;;;;17.50;99.90;;;;;;5041612;28;20025;-73
2023/10/10 08:01:27;;;;;;;;;;;17.30;99.90;;;;;;5043965;28;19971;-72
2023/10/10 08:03:55;;;;;;;;;;;17.50;99.90;;;;;;5042430;28;19971;-74
2023/10/10 08:06:25;;;;;;;;;;;17.60;99.90;;;;;;5043432;28;20053;-72
2023/10/10 08:09:10;;;;;;;;;;;17.80;99.90;;;;;;5041707;28;19981;-76
2023/10/10 08:11:38;;;;;;;;;;;17.80;99.90;;;;;;5043286;28;19978;-76
2023/10/10 08:14:07;;;;;;;;;;;17.80;99.90;;;;;;5042722;28;19971;-74
2023/10/10 08:16:36;;;;;;;;;;;17.90;99.90;;;;;;5042559;28;19983;-75
2023/10/10 08:19:08;;;;;;;;;;;17.90;99.90;;;;;;5040878;28;19975;-74
2023/10/10 08:21:38;;;;;;;;;;;18.20;99.90;;;;;;5042849;28;20096;-73
2023/10/10 08:24:07;;;;;;;;;;;18.50;99.90;;;;;;5042859;28;20070;-72
2023/10/10 08:26:40;;;;;;;;;;;18.60;99.90;;;;;;5042308;28;20555;-72
2023/10/10 08:29:08;;;;;;;;;;;18.70;99.90;;;;;;5040520;28;19975;-72
2023/10/10 08:31:37;;;;;;;;;;;18.90;99.90;;;;;;5042606;28;19971;-73
2023/10/10 08:34:08;;;;;;;;;;;19.00;99.90;;;;;;5041729;28;19963;-72
2023/10/10 08:36:43;;;;;;;;;;;19.00;99.90;;;;;;5042511;28;19978;-75
2023/10/10 08:39:25;;;;;;;;;;;19.20;99.90;;;;;;5041024;28;20013;-72
2023/10/10 08:41:53;;;;;;;;;;;19.50;99.90;;;;;;5043281;28;19974;-72
2023/10/10 08:44:23;;;;;;;;;;;19.40;99.90;;;;;;5042971;28;20913;-72
2023/10/10 08:46:52;;;;;;;;;;;19.50;99.90;;;;;;5042690;28;19975;-72
2023/10/10 08:49:20;;;;;;;;;;;19.50;99.90;;;;;;5040165;28;20839;-74
2023/10/10 08:51:52;;;;;;;;;;;19.60;99.90;;;;;;5042078;28;19974;-72
2023/10/10 08:54:20;;;;;;;;;;;19.70;99.90;;;;;;5042633;28;19971;-72
2023/10/10 08:56:59;;;;;;;;;;;20.00;99.90;;;;;;5042558;28;19998;-72
2023/10/10 08:59:29;;;;;;;;;;;19.90;99.90;;;;;;5041309;28;20357;-73
2023/10/10 09:02:08;;;;;;;;;;;20.20;99.90;;;;;;5038622;28;19971;-74
2023/10/10 09:04:36;;;;;;;;;;;20.40;99.90;;;;;;5041951;28;20556;-74
2023/10/10 09:07:19;;;;;;;;;;;20.60;99.90;;;;;;5042079;28;19978;-73
2023/10/10 09:09:54;;;;;;;;;;;20.40;99.90;;;;;;5040898;28;20551;-74
2023/10/10 09:12:25;;;;;;;;;;;20.50;99.90;;;;;;5042588;28;19967;-72
2023/10/10 09:14:53;;;;;;;;;;;20.50;99.90;;;;;;5042318;28;19982;-72
2023/10/10 09:17:29;;;;;;;;;;;20.50;99.90;;;;;;5042549;28;20097;-74
2023/10/10 09:19:58;;;;;;;;;;;20.50;99.90;;;;;;5039783;28;19981;-73
2023/10/10 09:22:34;;;;;;;;;;;20.60;99.90;;;;;;5042071;28;21221;-74
2023/10/10 09:25:18;;;;;;;;;;;20.70;99.90;;;;;;5041556;28;19967;-73
2023/10/10 09:27:57;;;;;;;;;;;20.60;99.90;;;;;;5042231;28;19975;-73
2023/10/10 09:30:30;;;;;;;;;;;20.50;99.90;;;;;;5039955;28;20017;-75
2023/10/10 09:33:12;;;;;;;;;;;20.50;99.90;;;;;;5041442;28;19974;-75
2023/10/10 09:35:45;;;;;;;;;;;20.60;99.90;;;;;;5041666;28;19971;-72
2023/10/10 09:38:19;;;;;;;;;;;20.50;99.90;;;;;;5041751;28;20779;-72
2023/10/10 09:40:48;;;;;;;;;;;20.40;99.90;;;;;;5040692;28;19971;-72
2023/10/10 09:43:24;;;;;;;;;;;20.60;99.90;;;;;;5041441;28;19977;-71
2023/10/10 09:45:55;;;;;;;;;;;20.70;99.90;;;;;;5041851;28;20457;-75
2023/10/10 09:48:59;;;;;;;;;;;20.80;99.90;;;;;;5040207;28;20520;-72
2023/10/10 09:51:30;;;;;;;;;;;21.00;99.90;;;;;;5040341;28;20016;-75
2023/10/10 09:54:15;;;;;;;;;;;21.10;99.90;;;;;;5041233;28;20341;-73
2023/10/10 09:56:48;;;;;;;;;;;21.00;99.90;;;;;;5037458;28;20010;-74
2023/10/10 09:59:18;;;;;;;;;;;21.10;99.90;;;;;;5039656;28;19971;-72
2023/10/10 10:01:47;;;;;;;;;;;21.10;99.90;;;;;;5041326;28;20574;-72
2023/10/10 10:04:18;;;;;;;;;;;21.00;99.90;;;;;;5040338;28;19978;-71
2023/10/10 10:06:52;;;;;;;;;;;21.00;99.90;;;;;;5041700;28;20096;-72
2023/10/10 10:09:51;;;;;;;;;;;21.10;99.90;;;;;;5038644;28;19969;-72
2023/10/10 10:12:30;;;;;;;;;;;21.40;99.90;;;;;;5040541;28;19971;-72
2023/10/10 10:15:07;;;;;;;;;;;21.50;99.90;;;;;;5040920;28;19975;-72
2023/10/10 10:17:47;;;;;;;;;;;21.60;99.90;;;;;;5041145;28;20049;-72
2023/10/10 10:20:23;;;;;;;;;;;22.00;99.90;;;;;;5038544;28;20044;-72
2023/10/10 10:22:53;;;;;;;;;;;22.50;99.90;;;;;;5040590;28;20119;-73
2023/10/10 10:25:28;;;;;;;;;;;22.70;99.90;;;;;;5041318;28;19970;-74
2023/10/10 10:28:00;;;;;;;;;;;22.80;99.90;;;;;;5042057;28;20006;-73
2023/10/10 10:30:47;;;;;;;;;;;22.90;99.90;;;;;;5039240;28;19982;-72
2023/10/10 10:33:19;;;;;;;;;;;23.20;99.90;;;;;;5040961;28;19975;-71
2023/10/10 10:36:14;;;;;;;;;;;23.40;99.90;;;;;;5041105;28;19971;-73
2023/10/10 10:39:18;;;;;;;;;;;23.40;99.90;;;;;;5037164;28;20113;-76
2023/10/10 10:41:42;;;;;;;;;;;23.50;99.90;;;;;;5040079;28;19974;-72
2023/10/10 10:44:13;;;;;;;;;;;23.70;99.90;;;;;;5039782;28;20030;-69
2023/10/10 10:46:47;;;;;;;;;;;23.80;99.90;;;;;;5040456;28;19967;-68
2023/10/10 10:49:21;;;;;;;;;;;23.70;99.90;;;;;;5038002;28;20211;-68
2023/10/10 10:52:10;;;;;;;;;;;23.60;99.90;;;;;;5040076;28;19970;-68
2023/10/10 10:54:41;;;;;;;;;;;23.70;99.90;;;;;;5040067;28;19967;-69
2023/10/10 10:57:27;;;;;;;;;;;23.50;99.90;;;;;;5040394;28;20011;-74
2023/10/10 11:00:27;;;;;;;;;;;23.60;99.90;;;;;;5038368;28;19967;-69
2023/10/10 11:02:59;;;;;;;;;;;23.90;99.90;;;;;;5040575;28;20004;-70
2023/10/10 11:05:29;;;;;;;;;;;24.10;99.90;;;;;;5040893;28;19971;-70
2023/10/10 11:08:10;;;;;;;;;;;24.10;99.90;;;;;;5040473;28;20347;-70
2023/10/10 11:10:46;;;;;;;;;;;24.10;99.90;;;;;;5038092;28;20056;-71
2023/10/10 11:13:15;;;;;;;;;;;24.40;99.90;;;;;;5039302;28;20010;-69
2023/10/10 11:15:43;;;;;;;;;;;24.30;99.90;;;;;;5039395;28;19971;-69
2023/10/10 11:18:12;;;;;;;;;;;24.20;99.90;;;;;;5039076;28;20053;-71
2023/10/10 11:20:56;;;;;;;;;;;24.00;99.90;;;;;;5037855;28;21028;-70
2023/10/10 11:23:41;;;;;;;;;;;24.00;99.90;;;;;;5040522;28;20461;-69
2023/10/10 11:26:13;;;;;;;;;;;24.00;99.90;;;;;;5039077;28;21577;-70
2023/10/10 11:28:47;;;;;;;;;;;24.10;99.90;;;;;;5037548;28;19974;-71
2023/10/10 11:31:23;;;;;;;;;;;24.10;99.90;;;;;;5039878;28;19982;-69
2023/10/10 11:34:09;;;;;;;;;;;24.10;99.90;;;;;;5040279;28;19975;-69
2023/10/10 11:36:40;;;;;;;;;;;24.20;99.90;;;;;;5039537;28;19971;-71
2023/10/10 11:39:31;;;;;;;;;;;24.40;99.90;;;;;;5038437;28;19998;-72
2023/10/10 11:42:03;;;;;;;;;;;24.40;99.90;;;;;;5040002;28;19978;-70
2023/10/10 11:44:34;;;;;;;;;;;24.10;99.90;;;;;;5039733;28;20514;-72
2023/10/10 11:47:07;;;;;;;;;;;24.00;99.90;;;;;;5039577;28;19978;-71
2023/10/10 11:49:35;;;;;;;;;;;24.20;99.90;;;;;;5037865;28;19963;-71
2023/10/10 11:52:03;;;;;;;;;;;24.10;99.90;;;;;;5039742;28;20048;-72
2023/10/10 11:54:31;;;;;;;;;;;23.90;99.90;;;;;;5039678;28;20395;-73
2023/10/10 11:57:00;;;;;;;;;;;23.90;99.90;;;;;;5039221;28;19974;-69
2023/10/10 11:59:32;;;;;;;;;;;24.10;99.90;;;;;;5039656;28;20005;-69
2023/10/10 12:02:13;;;;;;;;;;;24.10;99.90;;;;;;5039651;28;20475;-68
2023/10/10 12:04:44;;;;;;;;;;;24.20;99.90;;;;;;5039578;28;20013;-69
2023/10/10 12:07:14;;;;;;;;;;;24.20;99.90;;;;;;5039761;28;19975;-69
2023/10/10 12:09:45;;;;;;;;;;;24.30;99.90;;;;;;5039271;28;19966;-69
2023/10/10 12:12:15;;;;;;;;;;;24.20;99.90;;;;;;5039582;28;20010;-69
2023/10/10 12:14:43;;;;;;;;;;;24.30;99.90;;;;;;5039689;28;20109;-69
2023/10/10 12:17:14;;;;;;;;;;;24.50;99.90;;;;;;5038511;28;20028;-69
2023/10/10 12:19:43;;;;;;;;;;;24.50;99.90;;;;;;5039822;28;20454;-70
2023/10/10 12:22:12;;;;;;;;;;;24.30;99.90;;;;;;5038774;28;20016;-69
2023/10/10 12:24:40;;;;;;;;;;;24.30;99.90;;;;;;5039228;28;19975;-70
2023/10/10 12:27:09;;;;;;;;;;;24.30;99.90;;;;;;5039402;28;19974;-70
2023/10/10 12:29:40;;;;;;;;;;;24.20;99.90;;;;;;5043428;28;20849;-68
2023/10/10 12:32:18;;;;;;;;;;;24.00;99.90;;;;;;5043480;28;19978;-69
2023/10/10 12:34:50;;;;;;;;;;;23.80;99.90;;;;;;5043160;28;20018;-69
2023/10/10 12:37:17;;;;;;;;;;;23.60;99.90;;;;;;5042797;28;19971;-70
2023/10/10 12:39:46;;;;;;;;;;;23.60;99.90;;;;;;5042818;28;20018;-70
2023/10/10 12:42:14;;;;;;;;;;;24.00;99.90;;;;;;5042398;28;20351;-69
2023/10/10 12:44:47;;;;;;;;;;;24.40;99.90;;;;;;5042787;28;19967;-70
2023/10/10 12:47:17;;;;;;;;;;;24.80;99.90;;;;;;5042303;28;20070;-70
2023/10/10 12:49:46;;;;;;;;;;;25.20;99.90;;;;;;5038905;28;19975;-68
2023/10/10 12:52:17;;;;;;;;;;;25.70;99.90;;;;;;5042150;28;19974;-70
2023/10/10 12:54:46;;;;;;;;;;;26.20;99.90;;;;;;5042852;28;20433;-71
2023/10/10 12:57:14;;;;;;;;;;;26.80;99.90;;;;;;5043515;28;19971;-70
2023/10/10 12:59:46;;;;;;;;;;;26.70;99.90;;;;;;5044324;28;19995;-70
2023/10/10 13:02:16;;;;;;;;;;;26.70;99.90;;;;;;5042250;28;20052;-70
2023/10/10 13:04:47;;;;;;;;;;;27.00;99.90;;;;;;5042005;28;19982;-72
2023/10/10 13:07:18;;;;;;;;;;;27.20;99.90;;;;;;5041946;28;20492;-69
2023/10/10 13:09:46;;;;;;;;;;;27.10;99.50;;;;;;5042319;28;19976;-70
2023/10/10 13:12:32;;;;;;;;;;;26.90;99.90;;;;;;5042137;28;19974;-70
2023/10/10 13:15:17;;;;;;;;;;;26.80;99.90;;;;;;5042441;28;20069;-72
2023/10/10 13:17:53;;;;;;;;;;;26.50;99.90;;;;;;5042189;28;20480;-68
2023/10/10 13:20:22;;;;;;;;;;;26.20;99.90;;;;;;5041850;28;20460;-71
2023/10/10 13:22:51;;;;;;;;;;;26.10;99.90;;;;;;5042276;28;20379;-71
2023/10/10 13:25:20;;;;;;;;;;;26.30;99.90;;;;;;5041721;28;20449;-70
2023/10/10 13:27:52;;;;;;;;;;;26.50;99.90;;;;;;5042044;28;20102;-71
2023/10/10 13:30:19;;;;;;;;;;;26.60;99.90;;;;;;5042158;28;19971;-71
2023/10/10 13:32:47;;;;;;;;;;;26.50;99.90;;;;;;5042049;28;20371;-70
2023/10/10 13:35:15;;;;;;;;;;;26.50;99.90;;;;;;5041718;28;19975;-69
2023/10/10 13:37:43;;;;;;;;;;;26.50;99.90;;;;;;5041445;28;19987;-69
2023/10/10 13:40:21;;;;;;;;;;;26.40;99.90;;;;;;5040646;28;19975;-69
2023/10/10 13:42:49;;;;;;;;;;;26.20;99.90;;;;;;5041743;28;21023;-69
2023/10/10 13:45:22;;;;;;;;;;;26.20;99.90;;;;;;5041598;28;20461;-70
2023/10/10 13:47:50;;;;;;;;;;;26.20;99.90;;;;;;5041541;28;20346;-71
2023/10/10 13:50:31;;;;;;;;;;;26.30;99.90;;;;;;5042004;28;20180;-70
2023/10/10 13:53:00;;;;;;;;;;;26.50;99.90;;;;;;5041885;28;19981;-69
2023/10/10 13:55:32;;;;;;;;;;;26.50;99.90;;;;;;5041666;28;20037;-69
2023/10/10 13:57:59;;;;;;;;;;;26.60;99.90;;;;;;5041203;28;20465;-70
2023/10/10 14:00:33;;;;;;;;;;;26.80;99.90;;;;;;5041609;28;19974;-70
2023/10/10 14:03:03;;;;;;;;;;;26.90;99.90;;;;;;5041816;28;19978;-71
2023/10/10 14:05:33;;;;;;;;;;;27.20;99.80;;;;;;5042063;28;20403;-69
2023/10/10 14:08:03;;;;;;;;;;;27.60;99.70;;;;;;5041782;28;19967;-71
2023/10/10 14:10:39;;;;;;;;;;;28.00;99.00;;;;;;5041589;28;19970;-71
2023/10/10 14:13:19;;;;;;;;;;;27.90;98.70;;;;;;5040482;28;20020;-71
2023/10/10 14:15:54;;;;;;;;;;;27.50;98.80;;;;;;5041254;28;19971;-71
2023/10/10 14:18:32;;;;;;;;;;;27.20;99.30;;;;;;5041151;28;20472;-70
2023/10/10 14:21:07;;;;;;;;;;;26.70;99.90;;;;;;5041220;28;19982;-71
2023/10/10 14:23:36;;;;;;;;;;;26.20;99.90;;;;;;5040216;28;20339;-69
2023/10/10 14:26:12;;;;;;;;;;;25.80;99.90;;;;;;5040813;28;20376;-71
2023/10/10 14:28:41;;;;;;;;;;;25.40;99.90;;;;;;5039923;28;19978;-69
2023/10/10 14:31:11;;;;;;;;;;;25.00;99.90;;;;;;5040602;28;20037;-72
2023/10/10 14:33:40;;;;;;;;;;;24.60;99.90;;;;;;5040278;28;20069;-70
2023/10/10 14:36:11;;;;;;;;;;;24.40;99.90;;;;;;5040210;28;19971;-70
2023/10/10 14:38:39;;;;;;;;;;;24.40;99.90;;;;;;5040444;28;19967;-70
2023/10/10 14:41:08;;;;;;;;;;;24.30;99.90;;;;;;5040457;28;20946;-71
2023/10/10 14:43:36;;;;;;;;;;;24.30;99.90;;;;;;5039488;28;19966;-69
2023/10/10 14:46:03;;;;;;;;;;;24.40;99.90;;;;;;5040505;28;19967;-73
2023/10/10 14:48:33;;;;;;;;;;;24.50;99.90;;;;;;5040692;28;19967;-71
2023/10/10 14:51:05;;;;;;;;;;;24.40;99.90;;;;;;5040418;28;19971;-73
2023/10/10 14:53:34;;;;;;;;;;;24.20;99.90;;;;;;5040252;28;19970;-70
2023/10/10 14:56:05;;;;;;;;;;;24.20;99.90;;;;;;5040751;28;19963;-70
2023/10/10 14:58:35;;;;;;;;;;;24.10;99.90;;;;;;5040419;28;20345;-70
2023/10/10 15:01:03;;;;;;;;;;;24.00;99.90;;;;;;5040159;28;20046;-70
2023/10/10 15:03:40;;;;;;;;;;;23.90;99.90;;;;;;5040498;28;19990;-72
2023/10/10 15:06:09;;;;;;;;;;;23.70;99.90;;;;;;5040408;28;19971;-69
2023/10/10 15:08:43;;;;;;;;;;;23.60;99.90;;;;;;5039328;28;19971;-70
2023/10/10 15:11:12;;;;;;;;;;;23.50;99.90;;;;;;5039789;28;20079;-70
2023/10/10 15:13:41;;;;;;;;;;;23.50;99.90;;;;;;5039991;28;19971;-70
2023/10/10 15:16:12;;;;;;;;;;;23.50;99.90;;;;;;5039526;28;20065;-72
2023/10/10 15:18:41;;;;;;;;;;;23.40;99.90;;;;;;5040099;28;20501;-68
2023/10/10 15:21:12;;;;;;;;;;;23.40;99.90;;;;;;5039850;28;19975;-70
2023/10/10 15:23:42;;;;;;;;;;;23.20;99.90;;;;;;5039334;28;19971;-70
2023/10/10 15:26:17;;;;;;;;;;;23.20;99.90;;;;;;5039842;28;19970;-70
2023/10/10 15:28:46;;;;;;;;;;;23.10;99.90;;;;;;5040331;28;21276;-69
2023/10/10 15:31:15;;;;;;;;;;;23.00;99.90;;;;;;5037676;28;20449;-69
2023/10/10 15:33:44;;;;;;;;;;;22.90;99.90;;;;;;5039356;28;20102;-71
2023/10/10 15:36:13;;;;;;;;;;;22.90;99.90;;;;;;5047994;28;19970;-70
2023/10/10 15:38:41;;;;;;;;;;;22.80;99.90;;;;;;5050934;28;20009;-71
2023/10/10 15:41:15;;;;;;;;;;;22.80;99.90;;;;;;5053101;28;19971;-71
2023/10/10 15:43:46;;;;;;;;;;;22.70;99.90;;;;;;5066922;22;19970;-66
2023/10/10 15:46:16;;;;;;;;;;;22.70;99.90;;;;;;5041844;28;19973;-66
2023/10/10 15:48:48;;;;;;;;;;;22.70;99.90;;;;;;5037734;28;20454;-66
2023/10/10 15:51:17;;;;;;;;;;;22.70;99.90;;;;;;5030219;28;19999;-66
2023/10/10 15:53:44;;;;;;;;;;;22.70;99.90;;;;;;5038149;28;20022;-66
2023/10/10 15:56:14;;;;;;;;;;;22.60;99.90;;;;;;5030768;28;20020;-66
2023/10/10 15:58:43;;;;;;;;;;;22.60;99.90;;;;;;5037361;28;19991;-66
2023/10/10 16:01:11;;;;;;;;;;;22.60;99.90;;;;;;5031960;28;20335;-66
2023/10/10 16:03:41;;;;;;;;;;;22.50;99.90;;;;;;5034601;28;20516;-66
2023/10/10 16:06:09;;;;;;;;;;;22.50;99.90;;;;;;5034589;28;20046;-66
2023/10/10 16:08:37;;;;;;;;;;;22.40;99.90;;;;;;5036337;28;19963;-66
2023/10/10 16:11:06;;;;;;;;;;;22.40;99.90;;;;;;5034693;28;20077;-66
2023/10/10 16:13:35;;;;;;;;;;;22.30;99.90;;;;;;5053259;28;20016;-66
2023/10/10 16:16:06;;;;;;;;;;;22.20;99.90;;;;;;5046938;28;20344;-66
2023/10/10 16:18:34;;;;;;;;;;;22.10;99.90;;;;;;5039675;28;19963;-66
2023/10/10 16:21:04;;;;;;;;;;;22.00;99.90;;;;;;5034456;28;19971;-66
2023/10/10 16:23:33;;;;;;;;;;;21.90;99.90;;;;;;5034274;28;19994;-66
2023/10/10 16:26:04;;;;;;;;;;;21.80;99.90;;;;;;5034843;28;20016;-65
2023/10/10 16:28:35;;;;;;;;;;;21.60;99.90;;;;;;5034464;28;19967;-66
2023/10/10 16:31:06;;;;;;;;;;;21.60;99.90;;;;;;5034542;28;19971;-65
2023/10/10 16:33:37;;;;;;;;;;;21.40;99.90;;;;;;5041337;28;20354;-66
2023/10/10 16:36:08;;;;;;;;;;;21.20;99.90;;;;;;5034439;28;20584;-66
2023/10/10 16:38:36;;;;;;;;;;;21.10;99.90;;;;;;5034159;28;20046;-66